SWA1981 KDEN-KGEG
Flight info
| Callsign | SWA1981 |
|---|---|
| Flight time | N/A |
| Altitude | 36000 |
| Route | DDRTH1 DDRTH DLN GEG |
| Aircraft | B38M/M-SDE1FGHILORVWXY/HB1 |
Departure
| Time | 2026-05-01 14:17 |
|---|---|
| Airport | Denver International Airport (KDEN) |
Arrival
| Time | N/A |
|---|---|
| Airport | Spokane International Airport (KGEG) |
| Time | Latitude | Longitude | Altitude | Speed | Heading |
|---|---|---|---|---|---|
| 2026-05-01 13:49 | 39.86366 | -104.67703 | 5365 ft | 0 kts | 180° |
| 2026-05-01 14:07 | 39.86367 | -104.67703 | 5368 ft | 2 kts | 180° |
| 2026-05-01 14:07 | 39.86383 | -104.67703 | 5358 ft | 2 kts | 180° |
| 2026-05-01 14:08 | 39.86416 | -104.67703 | 5367 ft | 2 kts | 182° |
| 2026-05-01 14:08 | 39.86432 | -104.67702 | 5367 ft | 2 kts | 181° |
| 2026-05-01 14:08 | 39.86437 | -104.67702 | 5368 ft | 0 kts | 181° |
| 2026-05-01 14:11 | 39.86423 | -104.67677 | 5364 ft | 6 kts | 111° |
| 2026-05-01 14:11 | 39.86418 | -104.67587 | 5368 ft | 14 kts | 90° |
| 2026-05-01 14:12 | 39.86417 | -104.67419 | 5368 ft | 22 kts | 90° |
| 2026-05-01 14:12 | 39.86416 | -104.67211 | 5368 ft | 23 kts | 90° |
| 2026-05-01 14:12 | 39.86415 | -104.66996 | 5368 ft | 24 kts | 91° |
| 2026-05-01 14:12 | 39.86414 | -104.66788 | 5368 ft | 22 kts | 90° |
| 2026-05-01 14:13 | 39.86418 | -104.66601 | 5367 ft | 17 kts | 64° |
| 2026-05-01 14:13 | 39.86481 | -104.66555 | 5368 ft | 16 kts | 39° |
| 2026-05-01 14:13 | 39.86504 | -104.66363 | 5368 ft | 18 kts | 91° |
| 2026-05-01 14:13 | 39.86530 | -104.66231 | 5366 ft | 12 kts | 27° |
| 2026-05-01 14:14 | 39.86627 | -104.66222 | 5366 ft | 18 kts | 0° |
| 2026-05-01 14:14 | 39.86780 | -104.66220 | 5368 ft | 26 kts | 0° |
| 2026-05-01 14:14 | 39.86982 | -104.66218 | 5368 ft | 29 kts | 0° |
| 2026-05-01 14:14 | 39.87188 | -104.66216 | 5367 ft | 30 kts | 0° |
| 2026-05-01 14:15 | 39.87375 | -104.66214 | 5367 ft | 26 kts | 0° |
| 2026-05-01 14:15 | 39.87553 | -104.66210 | 5367 ft | 26 kts | 1° |
| 2026-05-01 14:15 | 39.87664 | -104.66208 | 5367 ft | 10 kts | 1° |
| 2026-05-01 14:15 | 39.87737 | -104.66196 | 5367 ft | 11 kts | 30° |
| 2026-05-01 14:16 | 39.87761 | -104.66102 | 5368 ft | 13 kts | 91° |
| 2026-05-01 14:16 | 39.87759 | -104.65862 | 5367 ft | 56 kts | 90° |
| 2026-05-01 14:16 | 39.87753 | -104.65028 | 5365 ft | 126 kts | 90° |
| 2026-05-01 14:16 | 39.87738 | -104.63603 | 5364 ft | 185 kts | 92° |
| 2026-05-01 14:17 | 39.87707 | -104.61810 | 5845 ft | 205 kts | 91° |
| 2026-05-01 14:17 | 39.87743 | -104.59954 | 6774 ft | 210 kts | 83° |
| 2026-05-01 14:17 | 39.88074 | -104.58082 | 7545 ft | 216 kts | 72° |
| 2026-05-01 14:17 | 39.88516 | -104.56105 | 7980 ft | 241 kts | 72° |
| 2026-05-01 14:18 | 39.88982 | -104.53927 | 8529 ft | 262 kts | 73° |
| 2026-05-01 14:18 | 39.89470 | -104.51592 | 9205 ft | 278 kts | 73° |
| 2026-05-01 14:18 | 39.89975 | -104.49139 | 9819 ft | 288 kts | 73° |
| 2026-05-01 14:18 | 39.90316 | -104.47464 | 9975 ft | 288 kts | 74° |
| 2026-05-01 14:19 | 39.91003 | -104.44100 | 9989 ft | 288 kts | 71° |
| 2026-05-01 14:19 | 39.91972 | -104.41897 | 10467 ft | 294 kts | 45° |
| 2026-05-01 14:19 | 39.93670 | -104.40313 | 10991 ft | 310 kts | 22° |
| 2026-05-01 14:19 | 39.95771 | -104.39643 | 11538 ft | 323 kts | 7° |
| 2026-05-01 14:20 | 39.98042 | -104.39232 | 12226 ft | 332 kts | 7° |
| 2026-05-01 14:20 | 40.02614 | -104.38416 | 13918 ft | 340 kts | 7° |
| 2026-05-01 14:20 | 40.04981 | -104.38435 | 14649 ft | 342 kts | 348° |
| 2026-05-01 14:21 | 40.07187 | -104.39581 | 15393 ft | 345 kts | 328° |
| 2026-05-01 14:21 | 40.09168 | -104.41387 | 16076 ft | 350 kts | 326° |
| 2026-05-01 14:21 | 40.10488 | -104.42610 | 16569 ft | 352 kts | 326° |
| 2026-05-01 14:22 | 40.14495 | -104.46382 | 17988 ft | 359 kts | 325° |
| 2026-05-01 14:22 | 40.16552 | -104.48338 | 18651 ft | 362 kts | 325° |
| 2026-05-01 14:22 | 40.18572 | -104.50266 | 19229 ft | 366 kts | 325° |
| 2026-05-01 14:22 | 40.20616 | -104.52244 | 19816 ft | 369 kts | 325° |
| 2026-05-01 14:23 | 40.22668 | -104.54231 | 20414 ft | 371 kts | 325° |
| 2026-05-01 14:23 | 40.24758 | -104.56257 | 21023 ft | 374 kts | 325° |
| 2026-05-01 14:23 | 40.26861 | -104.58295 | 21562 ft | 377 kts | 325° |
| 2026-05-01 14:23 | 40.28980 | -104.60352 | 22120 ft | 381 kts | 325° |
| 2026-05-01 14:24 | 40.31118 | -104.62424 | 22659 ft | 384 kts | 325° |
| 2026-05-01 14:24 | 40.33270 | -104.64512 | 23190 ft | 388 kts | 325° |
| 2026-05-01 14:24 | 40.35445 | -104.66623 | 23712 ft | 391 kts | 325° |
| 2026-05-01 14:24 | 40.37641 | -104.68757 | 24166 ft | 394 kts | 325° |
| 2026-05-01 14:25 | 40.39848 | -104.70903 | 24621 ft | 396 kts | 325° |
| 2026-05-01 14:25 | 40.42023 | -104.73020 | 25145 ft | 395 kts | 324° |
| 2026-05-01 14:25 | 40.44227 | -104.75165 | 25656 ft | 396 kts | 324° |
| 2026-05-01 14:25 | 40.46451 | -104.77334 | 26030 ft | 399 kts | 324° |
| 2026-05-01 14:26 | 40.48682 | -104.79510 | 26448 ft | 401 kts | 324° |
| 2026-05-01 14:26 | 40.53197 | -104.83920 | 27249 ft | 407 kts | 324° |
| 2026-05-01 14:26 | 40.55477 | -104.86151 | 27634 ft | 409 kts | 324° |
| 2026-05-01 14:27 | 40.57768 | -104.88394 | 28014 ft | 412 kts | 325° |
| 2026-05-01 14:27 | 40.60080 | -104.90660 | 28408 ft | 414 kts | 325° |
| 2026-05-01 14:27 | 40.62377 | -104.92911 | 28789 ft | 416 kts | 325° |
| 2026-05-01 14:28 | 40.67033 | -104.97484 | 29401 ft | 422 kts | 326° |
| 2026-05-01 14:28 | 40.69395 | -104.99807 | 29751 ft | 425 kts | 326° |
| 2026-05-01 14:28 | 40.71776 | -105.02150 | 30109 ft | 428 kts | 326° |
| 2026-05-01 14:28 | 40.74162 | -105.04500 | 30413 ft | 430 kts | 326° |
| 2026-05-01 14:29 | 40.76501 | -105.06992 | 30683 ft | 435 kts | 316° |
| 2026-05-01 14:29 | 40.78411 | -105.10090 | 31021 ft | 436 kts | 311° |
| 2026-05-01 14:30 | 40.84129 | -105.19530 | 31864 ft | 442 kts | 311° |
| 2026-05-01 14:30 | 40.86036 | -105.22714 | 32157 ft | 444 kts | 310° |
| 2026-05-01 14:30 | 40.87958 | -105.25931 | 32462 ft | 445 kts | 310° |
| 2026-05-01 14:31 | 40.91783 | -105.32338 | 33183 ft | 444 kts | 310° |
| 2026-05-01 14:31 | 40.93704 | -105.35562 | 33531 ft | 444 kts | 310° |
| 2026-05-01 14:31 | 40.95611 | -105.38766 | 33939 ft | 443 kts | 310° |
| 2026-05-01 14:31 | 40.97497 | -105.41937 | 34280 ft | 442 kts | 309° |
| 2026-05-01 14:32 | 40.99405 | -105.45148 | 34603 ft | 442 kts | 309° |
| 2026-05-01 14:32 | 41.01296 | -105.48335 | 34914 ft | 441 kts | 309° |
| 2026-05-01 14:32 | 41.03188 | -105.51526 | 35239 ft | 440 kts | 309° |
| 2026-05-01 14:32 | 41.05077 | -105.54715 | 35558 ft | 438 kts | 309° |
| 2026-05-01 14:33 | 41.06954 | -105.57889 | 35878 ft | 437 kts | 309° |
| 2026-05-01 14:33 | 41.08804 | -105.61018 | 36167 ft | 437 kts | 308° |
| 2026-05-01 14:33 | 41.10701 | -105.64231 | 36246 ft | 437 kts | 308° |
| 2026-05-01 14:34 | 41.14398 | -105.70502 | 36239 ft | 436 kts | 309° |
| 2026-05-01 14:34 | 41.18139 | -105.76860 | 36235 ft | 437 kts | 309° |
| 2026-05-01 14:35 | 41.21849 | -105.83180 | 36242 ft | 437 kts | 309° |
| 2026-05-01 14:35 | 41.25581 | -105.89551 | 36237 ft | 437 kts | 309° |
| 2026-05-01 14:36 | 41.29305 | -105.95922 | 36237 ft | 437 kts | 309° |
| 2026-05-01 14:36 | 41.33043 | -106.02329 | 36221 ft | 438 kts | 309° |
| 2026-05-01 14:37 | 41.36779 | -106.08747 | 36231 ft | 439 kts | 309° |
| 2026-05-01 14:37 | 41.40498 | -106.15147 | 36227 ft | 439 kts | 309° |
| 2026-05-01 14:38 | 41.44228 | -106.21577 | 36231 ft | 439 kts | 309° |
| 2026-05-01 14:38 | 41.48208 | -106.27753 | 36251 ft | 438 kts | 314° |
| 2026-05-01 14:39 | 41.52289 | -106.33805 | 36224 ft | 439 kts | 314° |
| 2026-05-01 14:39 | 41.56352 | -106.39906 | 36241 ft | 440 kts | 313° |
| 2026-05-01 14:40 | 41.60375 | -106.45965 | 36234 ft | 440 kts | 313° |
| 2026-05-01 14:40 | 41.64437 | -106.52096 | 36243 ft | 440 kts | 313° |
| 2026-05-01 14:41 | 41.68498 | -106.58242 | 36253 ft | 440 kts | 313° |
| 2026-05-01 14:41 | 41.72551 | -106.64385 | 36257 ft | 440 kts | 313° |
| 2026-05-01 14:42 | 41.76586 | -106.70515 | 36236 ft | 440 kts | 313° |
| 2026-05-01 14:42 | 41.80649 | -106.76699 | 36260 ft | 442 kts | 313° |
| 2026-05-01 14:43 | 41.84705 | -106.82887 | 36260 ft | 441 kts | 313° |
| 2026-05-01 14:43 | 41.88754 | -106.89075 | 36250 ft | 441 kts | 313° |
| 2026-05-01 14:44 | 41.92764 | -106.95218 | 36248 ft | 441 kts | 313° |
| 2026-05-01 14:44 | 41.98843 | -107.04553 | 36251 ft | 441 kts | 314° |
| 2026-05-01 14:45 | 42.04912 | -107.13904 | 36247 ft | 443 kts | 314° |
| 2026-05-01 14:46 | 42.08950 | -107.20140 | 36229 ft | 443 kts | 314° |
| 2026-05-01 14:46 | 42.15024 | -107.29546 | 36221 ft | 443 kts | 314° |
| 2026-05-01 14:47 | 42.19039 | -107.35782 | 36218 ft | 443 kts | 314° |
| 2026-05-01 14:48 | 42.25080 | -107.45188 | 36230 ft | 445 kts | 314° |
| 2026-05-01 14:48 | 42.31151 | -107.54670 | 36218 ft | 444 kts | 314° |
| 2026-05-01 14:49 | 42.39201 | -107.67291 | 36217 ft | 444 kts | 314° |
| 2026-05-01 14:50 | 42.47260 | -107.79981 | 36207 ft | 445 kts | 314° |
| 2026-05-01 14:51 | 42.53291 | -107.89512 | 36208 ft | 445 kts | 314° |
| 2026-05-01 14:52 | 42.59317 | -107.99068 | 36199 ft | 446 kts | 314° |
| 2026-05-01 14:53 | 42.65362 | -108.08684 | 36203 ft | 445 kts | 314° |
| 2026-05-01 14:53 | 42.69360 | -108.15061 | 36197 ft | 445 kts | 314° |
| 2026-05-01 14:54 | 42.73390 | -108.21505 | 36204 ft | 445 kts | 314° |
| 2026-05-01 14:54 | 42.77370 | -108.27881 | 36209 ft | 445 kts | 314° |
| 2026-05-01 14:55 | 42.81380 | -108.34319 | 36215 ft | 446 kts | 314° |
| 2026-05-01 14:55 | 42.85384 | -108.40763 | 36223 ft | 445 kts | 314° |
| 2026-05-01 14:56 | 42.89400 | -108.47239 | 36233 ft | 447 kts | 314° |
| 2026-05-01 14:56 | 42.93395 | -108.53695 | 36238 ft | 447 kts | 314° |
| 2026-05-01 14:57 | 42.97417 | -108.60211 | 36242 ft | 447 kts | 314° |
| 2026-05-01 14:57 | 43.03401 | -108.69932 | 36235 ft | 447 kts | 314° |
| 2026-05-01 14:58 | 43.07394 | -108.76436 | 36216 ft | 447 kts | 314° |
| 2026-05-01 14:58 | 43.11397 | -108.82971 | 36223 ft | 449 kts | 314° |
| 2026-05-01 14:59 | 43.15405 | -108.89529 | 36220 ft | 449 kts | 314° |
| 2026-05-01 14:59 | 43.19401 | -108.96082 | 36214 ft | 449 kts | 314° |
| 2026-05-01 15:00 | 43.25373 | -109.05903 | 36223 ft | 449 kts | 314° |
| 2026-05-01 15:01 | 43.29371 | -109.12495 | 36225 ft | 449 kts | 314° |
| 2026-05-01 15:01 | 43.33385 | -109.19129 | 36229 ft | 451 kts | 314° |
| 2026-05-01 15:02 | 43.37381 | -109.25749 | 36222 ft | 450 kts | 314° |
| 2026-05-01 15:02 | 43.41363 | -109.32361 | 36239 ft | 450 kts | 314° |
| 2026-05-01 15:03 | 43.45339 | -109.38978 | 36237 ft | 450 kts | 314° |
| 2026-05-01 15:03 | 43.49334 | -109.45642 | 36244 ft | 450 kts | 314° |
| 2026-05-01 15:04 | 43.53321 | -109.52307 | 36240 ft | 451 kts | 314° |
| 2026-05-01 15:04 | 43.57293 | -109.58963 | 36267 ft | 451 kts | 314° |
| 2026-05-01 15:05 | 43.61253 | -109.65613 | 36266 ft | 451 kts | 314° |
| 2026-05-01 15:05 | 43.65253 | -109.72347 | 36264 ft | 452 kts | 313° |
| 2026-05-01 15:06 | 43.68571 | -109.77944 | 36275 ft | 453 kts | 313° |
| 2026-05-01 15:06 | 43.72546 | -109.84663 | 36296 ft | 453 kts | 313° |
| 2026-05-01 15:07 | 43.76523 | -109.91402 | 36295 ft | 453 kts | 313° |
| 2026-05-01 15:07 | 43.80512 | -109.98177 | 36302 ft | 453 kts | 313° |
| 2026-05-01 15:08 | 43.84463 | -110.04904 | 36309 ft | 452 kts | 313° |
| 2026-05-01 15:08 | 43.88424 | -110.11662 | 36318 ft | 452 kts | 313° |
| 2026-05-01 15:09 | 43.92384 | -110.18435 | 36314 ft | 452 kts | 313° |
| 2026-05-01 15:09 | 43.96323 | -110.25187 | 36328 ft | 453 kts | 313° |
| 2026-05-01 15:10 | 44.00309 | -110.32037 | 36327 ft | 453 kts | 313° |
| 2026-05-01 15:10 | 44.06213 | -110.42212 | 36345 ft | 454 kts | 313° |
| 2026-05-01 15:11 | 44.12151 | -110.52481 | 36342 ft | 454 kts | 313° |
| 2026-05-01 15:12 | 44.16100 | -110.59332 | 36333 ft | 454 kts | 313° |
| 2026-05-01 15:12 | 44.21983 | -110.69568 | 36309 ft | 454 kts | 313° |
| 2026-05-01 15:14 | 44.31836 | -110.86791 | 36284 ft | 454 kts | 312° |
| 2026-05-01 15:14 | 44.37728 | -110.97142 | 36283 ft | 454 kts | 312° |
| 2026-05-01 15:15 | 44.45580 | -111.10991 | 36292 ft | 455 kts | 312° |
| 2026-05-01 15:16 | 44.49504 | -111.17938 | 36054 ft | 455 kts | 311° |
| 2026-05-01 15:16 | 44.53405 | -111.24861 | 35539 ft | 457 kts | 311° |
| 2026-05-01 15:17 | 44.57351 | -111.31878 | 35024 ft | 458 kts | 311° |
| 2026-05-01 15:18 | 44.63274 | -111.42448 | 34272 ft | 460 kts | 311° |
| 2026-05-01 15:18 | 44.65242 | -111.45968 | 33981 ft | 460 kts | 311° |
| 2026-05-01 15:19 | 44.71144 | -111.56552 | 33145 ft | 458 kts | 311° |
| 2026-05-01 15:19 | 44.75025 | -111.63533 | 32615 ft | 455 kts | 311° |
| 2026-05-01 15:19 | 44.76952 | -111.67005 | 32347 ft | 453 kts | 311° |
| 2026-05-01 15:20 | 44.80790 | -111.73934 | 31847 ft | 450 kts | 311° |
| 2026-05-01 15:20 | 44.82698 | -111.77383 | 31592 ft | 449 kts | 311° |
| 2026-05-01 15:20 | 44.84612 | -111.80851 | 31322 ft | 446 kts | 311° |
| 2026-05-01 15:21 | 44.86510 | -111.84292 | 31063 ft | 444 kts | 311° |
| 2026-05-01 15:21 | 44.88407 | -111.87735 | 30817 ft | 442 kts | 311° |
| 2026-05-01 15:21 | 44.90294 | -111.91162 | 30563 ft | 441 kts | 311° |
| 2026-05-01 15:21 | 44.92149 | -111.94534 | 30335 ft | 439 kts | 311° |
| 2026-05-01 15:22 | 44.95872 | -112.01315 | 29755 ft | 436 kts | 311° |
| 2026-05-01 15:22 | 44.97708 | -112.04664 | 29478 ft | 435 kts | 311° |
| 2026-05-01 15:22 | 44.99555 | -112.08037 | 29201 ft | 434 kts | 311° |
| 2026-05-01 15:23 | 45.01381 | -112.11379 | 28906 ft | 432 kts | 310° |
| 2026-05-01 15:23 | 45.03216 | -112.14737 | 28630 ft | 431 kts | 310° |
| 2026-05-01 15:23 | 45.05042 | -112.18084 | 28355 ft | 430 kts | 310° |
| 2026-05-01 15:23 | 45.06832 | -112.21368 | 28223 ft | 429 kts | 310° |
| 2026-05-01 15:24 | 45.10470 | -112.28055 | 28222 ft | 430 kts | 310° |
| 2026-05-01 15:24 | 45.14121 | -112.34782 | 28233 ft | 430 kts | 310° |
| 2026-05-01 15:25 | 45.17738 | -112.41461 | 28229 ft | 430 kts | 310° |
| 2026-05-01 15:25 | 45.21384 | -112.48209 | 28237 ft | 430 kts | 310° |
| 2026-05-01 15:26 | 45.24969 | -112.54969 | 28254 ft | 431 kts | 305° |
| 2026-05-01 15:26 | 45.28159 | -112.62184 | 28262 ft | 430 kts | 305° |
| 2026-05-01 15:27 | 45.31404 | -112.69332 | 28259 ft | 430 kts | 305° |
| 2026-05-01 15:28 | 45.36276 | -112.80021 | 28257 ft | 430 kts | 305° |
| 2026-05-01 15:28 | 45.39495 | -112.87104 | 28247 ft | 430 kts | 305° |
| 2026-05-01 15:29 | 45.44356 | -112.97831 | 28237 ft | 429 kts | 304° |
| 2026-05-01 15:30 | 45.50787 | -113.12084 | 28270 ft | 429 kts | 304° |
| 2026-05-01 15:31 | 45.60390 | -113.33506 | 28275 ft | 425 kts | 304° |
| 2026-05-01 15:32 | 45.66716 | -113.47706 | 28280 ft | 425 kts | 304° |
| 2026-05-01 15:34 | 45.76174 | -113.69071 | 28274 ft | 423 kts | 304° |